Time;durP1;ratioP1;P1;durP2;ratioP2;P2;SDS_P1;SDS_P2;PMS_P1;PMS_P2;Temp;Humidity;BMP_temperature;BMP_pressure;BME280_temperature;BME280_humidity;BME280_pressure;Samples;Min_cycle;Max_cycle;Signal;HPM_P1;HPM_P2
2023/01/10 00:02:12;;;;;;;;;;;19.10;42.90;;;;;;5063650;28;19967;-62
2023/01/10 00:04:39;;;;;;;;;;;19.10;42.90;;;;;;5060975;28;19923;-66
2023/01/10 00:07:06;;;;;;;;;;;19.10;42.90;;;;;;5062230;28;19974;-68
2023/01/10 00:09:34;;;;;;;;;;;19.10;42.90;;;;;;5063585;28;19932;-64
2023/01/10 00:14:45;;;;;;;;;;;19.10;42.90;;;;;;5056260;28;20066;-65
2023/01/10 00:17:12;;;;;;;;;;;19.10;42.90;;;;;;5060322;28;19971;-65
2023/01/10 00:19:39;;;;;;;;;;;19.10;43.50;;;;;;5063278;28;19920;-67
2023/01/10 00:22:18;;;;;;;;;;;19.10;42.90;;;;;;5062048;28;19943;-64
2023/01/10 00:24:46;;;;;;;;;;;19.00;42.80;;;;;;5061931;28;19946;-62
2023/01/10 00:27:16;;;;;;;;;;;19.00;42.80;;;;;;5062400;28;19929;-62
2023/01/10 00:29:42;;;;;;;;;;;19.10;42.90;;;;;;5080216;28;19920;-64
2023/01/10 00:32:09;;;;;;;;;;;19.00;42.80;;;;;;5076067;28;19928;-65
2023/01/10 00:34:36;;;;;;;;;;;19.00;42.80;;;;;;5060124;28;19946;-64
2023/01/10 00:37:02;;;;;;;;;;;19.00;42.70;;;;;;5064110;28;19969;-64
2023/01/10 00:39:30;;;;;;;;;;;19.00;42.70;;;;;;5062117;28;19920;-64
2023/01/10 00:44:43;;;;;;;;;;;19.00;42.70;;;;;;5063633;28;19920;-63
2023/01/10 00:47:10;;;;;;;;;;;19.00;42.70;;;;;;5062983;28;19920;-63
2023/01/10 00:49:37;;;;;;;;;;;19.00;42.70;;;;;;5062816;28;19986;-63
2023/01/10 00:52:04;;;;;;;;;;;19.00;42.70;;;;;;5061494;28;19928;-65
2023/01/10 00:54:30;;;;;;;;;;;19.00;42.80;;;;;;5063759;28;19931;-63
2023/01/10 00:56:59;;;;;;;;;;;19.00;42.80;;;;;;5061307;28;20374;-64
2023/01/10 00:59:25;;;;;;;;;;;18.90;42.70;;;;;;5063731;28;19920;-64
2023/01/10 01:01:52;;;;;;;;;;;19.00;42.70;;;;;;5062286;28;19920;-64
2023/01/10 01:04:19;;;;;;;;;;;19.00;42.70;;;;;;5060786;28;19925;-65
2023/01/10 01:06:46;;;;;;;;;;;18.90;42.70;;;;;;5076833;28;20316;-62
2023/01/10 01:09:13;;;;;;;;;;;18.90;42.70;;;;;;5080877;28;19920;-63
2023/01/10 01:11:40;;;;;;;;;;;18.90;42.60;;;;;;5067491;28;19953;-71
2023/01/10 01:14:08;;;;;;;;;;;18.90;42.60;;;;;;5081146;28;20010;-63
2023/01/10 01:16:35;;;;;;;;;;;18.90;42.60;;;;;;5066317;28;19920;-63
2023/01/10 01:19:01;;;;;;;;;;;18.90;42.60;;;;;;5066890;28;19920;-67
2023/01/10 01:21:28;;;;;;;;;;;18.90;42.60;;;;;;5063767;28;19924;-67
2023/01/10 01:23:56;;;;;;;;;;;18.90;42.60;;;;;;5066634;28;19924;-64
2023/01/10 01:26:23;;;;;;;;;;;18.90;42.60;;;;;;5063419;28;19924;-63
2023/01/10 01:28:50;;;;;;;;;;;18.90;42.60;;;;;;5061533;28;19989;-63
2023/01/10 01:31:18;;;;;;;;;;;18.90;42.70;;;;;;5063596;28;20254;-64
2023/01/10 01:33:45;;;;;;;;;;;18.90;42.50;;;;;;5063671;28;19981;-62
2023/01/10 01:36:12;;;;;;;;;;;18.90;42.50;;;;;;5064993;28;20013;-63
2023/01/10 01:38:39;;;;;;;;;;;18.90;42.50;;;;;;5082858;28;19924;-63
2023/01/10 01:41:55;;;;;;;;;;;18.90;42.50;;;;;;5063099;28;20374;-63
2023/01/10 01:43:58;;;;;;;;;;;18.90;42.50;;;;;;5056614;28;20019;-62
2023/01/10 01:46:27;;;;;;;;;;;18.90;42.50;;;;;;5067724;28;19924;-63
2023/01/10 01:48:53;;;;;;;;;;;18.80;42.40;;;;;;5082630;28;19931;-63
2023/01/10 01:51:20;;;;;;;;;;;18.80;42.30;;;;;;5065449;28;19920;-64
2023/01/10 01:53:48;;;;;;;;;;;18.80;42.30;;;;;;5062089;28;19924;-62
2023/01/10 01:56:16;;;;;;;;;;;18.80;42.30;;;;;;5064554;28;19920;-64
2023/01/10 01:58:44;;;;;;;;;;;18.80;42.30;;;;;;5048482;28;20012;-68
2023/01/10 02:01:11;;;;;;;;;;;18.80;42.30;;;;;;5060709;28;19969;-63
2023/01/10 02:03:40;;;;;;;;;;;18.80;42.30;;;;;;5083689;28;19974;-63
2023/01/10 02:06:07;;;;;;;;;;;18.80;42.30;;;;;;5060382;28;19921;-64
2023/01/10 02:08:33;;;;;;;;;;;18.80;42.30;;;;;;5066496;28;19973;-64
2023/01/10 02:11:02;;;;;;;;;;;18.80;42.30;;;;;;5062736;28;19973;-63
2023/01/10 02:13:29;;;;;;;;;;;18.80;42.30;;;;;;5060701;28;19932;-63
2023/01/10 02:15:55;;;;;;;;;;;18.80;42.30;;;;;;5063318;28;19924;-67
2023/01/10 02:18:22;;;;;;;;;;;18.80;42.30;;;;;;5064974;28;19931;-63
2023/01/10 02:20:54;;;;;;;;;;;18.80;42.30;;;;;;5062360;28;20450;-64
2023/01/10 02:23:36;;;;;;;;;;;18.80;42.30;;;;;;5081964;28;19920;-64
2023/01/10 02:26:36;;;;;;;;;;;18.80;42.30;;;;;;5078582;28;19928;-63
2023/01/10 02:29:08;;;;;;;;;;;18.80;42.30;;;;;;5004335;28;19971;-62
2023/01/10 02:31:54;;;;;;;;;;;18.80;42.30;;;;;;4996679;28;19976;-62
2023/01/10 02:34:23;;;;;;;;;;;18.80;42.30;;;;;;5040505;28;19925;-62
2023/01/10 02:36:50;;;;;;;;;;;18.80;42.30;;;;;;5058397;28;20247;-65
2023/01/10 02:39:18;;;;;;;;;;;18.70;42.30;;;;;;5082392;28;19924;-64
2023/01/10 02:41:45;;;;;;;;;;;18.80;42.30;;;;;;5064213;28;20312;-63
2023/01/10 02:44:14;;;;;;;;;;;18.80;42.30;;;;;;5081732;28;19924;-65
2023/01/10 02:46:41;;;;;;;;;;;18.80;42.30;;;;;;5062799;28;19927;-63
2023/01/10 02:49:07;;;;;;;;;;;18.80;42.30;;;;;;5059615;28;19923;-69
2023/01/10 02:51:35;;;;;;;;;;;18.80;42.30;;;;;;5064472;28;19969;-66
2023/01/10 02:54:03;;;;;;;;;;;18.80;42.30;;;;;;5077083;28;19920;-63
2023/01/10 02:56:51;;;;;;;;;;;18.80;42.30;;;;;;5079919;28;19998;-63
2023/01/10 02:59:29;;;;;;;;;;;18.80;42.30;;;;;;5039438;28;19982;-62
2023/01/10 03:01:57;;;;;;;;;;;18.80;42.30;;;;;;5062281;28;20312;-62
2023/01/10 03:04:26;;;;;;;;;;;18.80;42.30;;;;;;5058389;28;20035;-63
2023/01/10 03:06:54;;;;;;;;;;;18.80;42.30;;;;;;5064542;28;19986;-65
2023/01/10 03:09:22;;;;;;;;;;;18.70;42.20;;;;;;5063167;28;19984;-63
2023/01/10 03:11:48;;;;;;;;;;;18.80;42.20;;;;;;5062056;28;20005;-62
2023/01/10 03:14:16;;;;;;;;;;;18.80;42.20;;;;;;5065696;28;19920;-63
2023/01/10 03:16:44;;;;;;;;;;;18.70;42.10;;;;;;5079273;28;19948;-65
2023/01/10 03:19:11;;;;;;;;;;;18.80;42.20;;;;;;5062720;28;19959;-63
2023/01/10 03:21:38;;;;;;;;;;;18.80;42.20;;;;;;5063160;28;20265;-63
2023/01/10 03:24:07;;;;;;;;;;;18.80;42.20;;;;;;5064469;28;19920;-65
2023/01/10 03:26:35;;;;;;;;;;;18.80;42.20;;;;;;5060006;28;19924;-63
2023/01/10 03:29:03;;;;;;;;;;;18.80;42.20;;;;;;5061411;28;19960;-63
2023/01/10 03:31:30;;;;;;;;;;;18.80;42.20;;;;;;5057989;28;19952;-64
2023/01/10 03:33:57;;;;;;;;;;;18.70;42.10;;;;;;5061835;28;19982;-62
2023/01/10 03:36:25;;;;;;;;;;;18.80;42.20;;;;;;5061839;28;19920;-65
2023/01/10 03:38:53;;;;;;;;;;;18.70;42.10;;;;;;5062458;28;20419;-63
2023/01/10 03:41:24;;;;;;;;;;;18.70;42.10;;;;;;5061156;28;19939;-63
2023/01/10 03:46:37;;;;;;;;;;;18.70;42.10;;;;;;5062262;28;19973;-66
2023/01/10 03:49:04;;;;;;;;;;;18.70;42.10;;;;;;5058464;28;19957;-64
2023/01/10 03:51:31;;;;;;;;;;;18.70;42.10;;;;;;5062129;28;19921;-63
2023/01/10 03:53:59;;;;;;;;;;;18.70;42.00;;;;;;5061060;28;19924;-69
2023/01/10 03:56:27;;;;;;;;;;;18.70;42.00;;;;;;5077368;28;19973;-67
2023/01/10 03:58:54;;;;;;;;;;;18.70;42.00;;;;;;5062463;28;19924;-64
2023/01/10 04:01:21;;;;;;;;;;;18.70;42.00;;;;;;5078355;28;19939;-63
2023/01/10 04:03:48;;;;;;;;;;;18.70;42.00;;;;;;5081917;28;19981;-67
2023/01/10 04:06:16;;;;;;;;;;;18.70;42.00;;;;;;5062102;28;19960;-65
2023/01/10 04:08:43;;;;;;;;;;;18.70;41.90;;;;;;5045427;28;19969;-66
2023/01/10 04:11:09;;;;;;;;;;;18.70;42.00;;;;;;5062480;28;19928;-65
2023/01/10 04:13:40;;;;;;;;;;;18.70;41.90;;;;;;5062930;28;19959;-63
2023/01/10 04:16:07;;;;;;;;;;;18.70;41.90;;;;;;5061522;28;20276;-63
2023/01/10 04:18:34;;;;;;;;;;;18.70;41.90;;;;;;5060885;28;19962;-63
2023/01/10 04:21:01;;;;;;;;;;;18.70;41.90;;;;;;5064226;28;19928;-63
2023/01/10 04:23:28;;;;;;;;;;;18.70;41.90;;;;;;5063942;28;19928;-63
2023/01/10 04:25:54;;;;;;;;;;;18.70;41.90;;;;;;5062299;28;19925;-66
2023/01/10 04:28:21;;;;;;;;;;;18.70;41.90;;;;;;5059481;28;20189;-63
2023/01/10 04:30:49;;;;;;;;;;;18.70;41.90;;;;;;5079029;28;19921;-62
2023/01/10 04:33:16;;;;;;;;;;;18.70;41.90;;;;;;5064343;28;20014;-62
2023/01/10 04:35:46;;;;;;;;;;;18.70;41.90;;;;;;5060705;28;20312;-65
2023/01/10 04:38:13;;;;;;;;;;;18.70;41.90;;;;;;5056493;28;19977;-64
2023/01/10 04:40:40;;;;;;;;;;;18.70;41.90;;;;;;5058098;28;19925;-63
2023/01/10 04:43:07;;;;;;;;;;;18.70;41.90;;;;;;5083138;28;19985;-62
2023/01/10 04:45:33;;;;;;;;;;;18.70;41.90;;;;;;5064013;28;20257;-63
2023/01/10 04:48:02;;;;;;;;;;;18.60;41.80;;;;;;5065899;28;19995;-63
2023/01/10 04:50:28;;;;;;;;;;;18.60;41.80;;;;;;5064992;28;19920;-63
2023/01/10 04:52:55;;;;;;;;;;;18.60;41.80;;;;;;5082610;28;19966;-64
2023/01/10 04:55:22;;;;;;;;;;;18.60;41.70;;;;;;5065991;28;19969;-64
2023/01/10 04:57:48;;;;;;;;;;;18.60;41.80;;;;;;5063534;28;19920;-64
2023/01/10 05:00:16;;;;;;;;;;;18.60;41.70;;;;;;5065333;28;19920;-63
2023/01/10 05:02:43;;;;;;;;;;;18.60;41.70;;;;;;5083834;28;19959;-62
2023/01/10 05:05:11;;;;;;;;;;;18.60;41.70;;;;;;5066529;28;20302;-64
2023/01/10 05:07:38;;;;;;;;;;;18.60;41.70;;;;;;5064808;28;19920;-65
2023/01/10 05:10:05;;;;;;;;;;;18.60;41.70;;;;;;5066502;28;19977;-63
2023/01/10 05:12:32;;;;;;;;;;;18.60;41.70;;;;;;5065581;28;19967;-64
2023/01/10 05:14:59;;;;;;;;;;;18.60;41.70;;;;;;5067000;28;20358;-63
2023/01/10 05:17:25;;;;;;;;;;;18.60;41.70;;;;;;5079630;28;19920;-63
2023/01/10 05:19:52;;;;;;;;;;;18.60;41.70;;;;;;5065260;28;19934;-66
2023/01/10 05:22:23;;;;;;;;;;;18.60;41.60;;;;;;5064736;28;19925;-64
2023/01/10 05:24:49;;;;;;;;;;;18.60;41.70;;;;;;5064877;28;19973;-63
2023/01/10 05:27:16;;;;;;;;;;;18.60;41.70;;;;;;5084470;28;19920;-67
2023/01/10 05:29:43;;;;;;;;;;;18.60;41.70;;;;;;5067860;28;19920;-64
2023/01/10 05:32:10;;;;;;;;;;;18.60;41.60;;;;;;5061614;28;19920;-66
2023/01/10 05:34:37;;;;;;;;;;;18.60;41.60;;;;;;5079891;28;20304;-64
2023/01/10 05:37:03;;;;;;;;;;;18.60;41.60;;;;;;5064323;28;19948;-64
2023/01/10 05:39:31;;;;;;;;;;;18.60;41.60;;;;;;5065461;28;20391;-63
2023/01/10 05:41:59;;;;;;;;;;;18.60;41.60;;;;;;5081359;28;19928;-64
2023/01/10 05:44:28;;;;;;;;;;;18.60;41.60;;;;;;5062915;28;20003;-63
2023/01/10 05:46:54;;;;;;;;;;;18.60;41.60;;;;;;5065905;28;19920;-63
2023/01/10 05:49:21;;;;;;;;;;;18.60;41.60;;;;;;5075794;28;19970;-63
2023/01/10 05:51:48;;;;;;;;;;;18.60;41.60;;;;;;5065674;28;19931;-65
2023/01/10 05:54:15;;;;;;;;;;;18.60;41.60;;;;;;5061795;28;19928;-64
2023/01/10 05:56:43;;;;;;;;;;;18.60;41.60;;;;;;5062524;28;19981;-64
2023/01/10 05:59:09;;;;;;;;;;;18.60;41.60;;;;;;5066087;28;19920;-64
2023/01/10 06:01:36;;;;;;;;;;;18.60;41.60;;;;;;5059582;28;19932;-63
2023/01/10 06:04:03;;;;;;;;;;;18.60;41.60;;;;;;5060390;28;19931;-65
2023/01/10 06:06:30;;;;;;;;;;;18.60;41.50;;;;;;5064505;28;20327;-63
2023/01/10 06:08:57;;;;;;;;;;;18.60;41.50;;;;;;5082172;28;20370;-65
2023/01/10 06:11:28;;;;;;;;;;;18.60;41.50;;;;;;5081235;28;19921;-64
2023/01/10 06:13:57;;;;;;;;;;;18.60;41.50;;;;;;5059141;28;19925;-63
2023/01/10 06:16:23;;;;;;;;;;;18.60;41.50;;;;;;5078823;28;20308;-64
2023/01/10 06:18:50;;;;;;;;;;;18.60;41.50;;;;;;5079200;28;20335;-64
2023/01/10 06:21:17;;;;;;;;;;;18.60;41.50;;;;;;5079571;28;19966;-63
2023/01/10 06:23:43;;;;;;;;;;;18.50;41.50;;;;;;5059630;28;20281;-65
2023/01/10 06:26:10;;;;;;;;;;;18.60;41.50;;;;;;5062419;28;19932;-65
2023/01/10 06:28:39;;;;;;;;;;;18.60;41.50;;;;;;5061565;28;19924;-65
2023/01/10 06:31:08;;;;;;;;;;;18.50;41.40;;;;;;5061343;28;20304;-66
2023/01/10 06:33:34;;;;;;;;;;;18.50;41.40;;;;;;5060836;28;19924;-64
2023/01/10 06:36:01;;;;;;;;;;;18.50;41.40;;;;;;5064547;28;20362;-64
2023/01/10 06:38:28;;;;;;;;;;;18.50;41.40;;;;;;5064209;28;19924;-63
2023/01/10 06:40:55;;;;;;;;;;;18.50;41.40;;;;;;5058068;28;19970;-64
2023/01/10 06:43:22;;;;;;;;;;;18.50;41.30;;;;;;5060493;28;19924;-63
2023/01/10 06:45:49;;;;;;;;;;;18.50;41.30;;;;;;5066163;28;19921;-62
2023/01/10 06:48:18;;;;;;;;;;;18.50;41.30;;;;;;5061327;28;19966;-63
2023/01/10 06:50:44;;;;;;;;;;;18.50;41.20;;;;;;5062962;28;19924;-64
2023/01/10 06:53:11;;;;;;;;;;;18.50;41.20;;;;;;5061708;28;19969;-64
2023/01/10 06:55:38;;;;;;;;;;;18.50;41.20;;;;;;5058820;28;19979;-66
2023/01/10 06:58:05;;;;;;;;;;;18.50;41.20;;;;;;5061224;28;19994;-65
2023/01/10 07:00:31;;;;;;;;;;;18.50;41.20;;;;;;5057588;28;19933;-63
2023/01/10 07:02:58;;;;;;;;;;;18.50;41.20;;;;;;5079662;28;19927;-64
2023/01/10 07:05:27;;;;;;;;;;;18.50;41.20;;;;;;5063947;28;19924;-63
2023/01/10 07:07:54;;;;;;;;;;;18.50;41.20;;;;;;5064682;28;20297;-64
2023/01/10 07:10:21;;;;;;;;;;;18.50;41.20;;;;;;5080960;28;19939;-61
2023/01/10 07:12:47;;;;;;;;;;;18.50;41.20;;;;;;5061105;28;19920;-64
2023/01/10 07:15:14;;;;;;;;;;;18.50;41.30;;;;;;5071891;28;19964;-62
2023/01/10 07:17:41;;;;;;;;;;;18.50;41.30;;;;;;5053610;28;19924;-64
2023/01/10 07:20:08;;;;;;;;;;;18.50;41.20;;;;;;5054501;28;20006;-65
2023/01/10 07:22:37;;;;;;;;;;;18.50;41.20;;;;;;5062903;28;19934;-62
2023/01/10 07:25:04;;;;;;;;;;;18.50;41.20;;;;;;5054030;28;19928;-63
2023/01/10 07:27:31;;;;;;;;;;;18.50;41.30;;;;;;5057477;28;19970;-63
2023/01/10 07:29:57;;;;;;;;;;;18.40;41.20;;;;;;5071676;28;20286;-66
2023/01/10 07:32:24;;;;;;;;;;;18.40;41.20;;;;;;5064969;28;19921;-63
2023/01/10 07:34:51;;;;;;;;;;;18.50;41.20;;;;;;5062194;28;19974;-63
2023/01/10 07:37:18;;;;;;;;;;;18.40;41.20;;;;;;5049346;28;19924;-63
2023/01/10 07:39:47;;;;;;;;;;;18.40;41.10;;;;;;5052418;28;19924;-63
2023/01/10 07:42:14;;;;;;;;;;;18.40;41.20;;;;;;5049675;28;19920;-62
2023/01/10 07:44:41;;;;;;;;;;;18.40;41.20;;;;;;5053248;28;20037;-62
2023/01/10 07:47:08;;;;;;;;;;;18.40;41.20;;;;;;5053071;28;19924;-62
2023/01/10 07:49:34;;;;;;;;;;;18.40;41.10;;;;;;5054337;28;19928;-65
2023/01/10 07:52:01;;;;;;;;;;;18.40;41.10;;;;;;5051564;28;20066;-63
2023/01/10 07:54:28;;;;;;;;;;;18.40;41.20;;;;;;5070753;28;19920;-63
2023/01/10 07:56:56;;;;;;;;;;;18.40;41.20;;;;;;5052123;28;19920;-63
2023/01/10 07:59:23;;;;;;;;;;;18.40;41.20;;;;;;5055117;28;19963;-64
2023/01/10 08:01:50;;;;;;;;;;;18.40;41.20;;;;;;5052254;28;19920;-67
2023/01/10 08:04:16;;;;;;;;;;;18.40;41.20;;;;;;5048455;28;19973;-66
2023/01/10 08:06:43;;;;;;;;;;;18.40;41.20;;;;;;5070192;28;19966;-63
2023/01/10 08:09:10;;;;;;;;;;;18.40;41.20;;;;;;5068137;28;19924;-63
2023/01/10 08:11:37;;;;;;;;;;;18.40;41.20;;;;;;5051260;28;19925;-64
2023/01/10 08:14:05;;;;;;;;;;;18.40;41.20;;;;;;5055430;28;19924;-63
2023/01/10 08:16:32;;;;;;;;;;;18.40;41.20;;;;;;5052589;28;20015;-66
2023/01/10 08:18:59;;;;;;;;;;;18.40;41.20;;;;;;5055314;28;19920;-68
2023/01/10 08:21:26;;;;;;;;;;;18.40;41.20;;;;;;5052496;28;19920;-68
2023/01/10 08:23:54;;;;;;;;;;;18.40;41.20;;;;;;5047823;28;19920;-68
2023/01/10 08:26:20;;;;;;;;;;;18.40;41.30;;;;;;5052573;28;19920;-69
2023/01/10 08:28:47;;;;;;;;;;;18.40;41.50;;;;;;5076875;28;19920;-70
2023/01/10 08:31:15;;;;;;;;;;;18.50;41.70;;;;;;5070990;28;19974;-65
2023/01/10 08:33:42;;;;;;;;;;;18.50;41.90;;;;;;5066101;28;20319;-67
2023/01/10 08:36:14;;;;;;;;;;;18.50;42.10;;;;;;5055744;28;20309;-66
2023/01/10 08:38:41;;;;;;;;;;;18.50;42.20;;;;;;5054134;28;19926;-68
2023/01/10 08:41:08;;;;;;;;;;;18.60;42.30;;;;;;5055701;28;19920;-67
2023/01/10 08:43:34;;;;;;;;;;;18.60;42.30;;;;;;5054129;28;19973;-67
2023/01/10 08:46:01;;;;;;;;;;;18.60;42.40;;;;;;5054136;28;19921;-70
2023/01/10 08:48:29;;;;;;;;;;;18.60;42.40;;;;;;5060077;28;19928;-69
2023/01/10 08:50:56;;;;;;;;;;;18.60;42.50;;;;;;5072126;28;19921;-71
2023/01/10 08:53:23;;;;;;;;;;;18.60;42.50;;;;;;5071714;28;19931;-72
2023/01/10 08:55:50;;;;;;;;;;;18.70;42.60;;;;;;5055423;28;19921;-69
2023/01/10 08:58:16;;;;;;;;;;;18.70;42.60;;;;;;5073195;28;19942;-70
2023/01/10 09:00:43;;;;;;;;;;;18.70;42.70;;;;;;5066431;28;19920;-68
2023/01/10 09:03:10;;;;;;;;;;;18.80;42.80;;;;;;5076005;28;19920;-67
2023/01/10 09:05:38;;;;;;;;;;;18.80;42.80;;;;;;5091554;28;19921;-71
2023/01/10 09:08:05;;;;;;;;;;;18.80;42.80;;;;;;5075861;28;19924;-69
2023/01/10 09:10:32;;;;;;;;;;;18.80;42.80;;;;;;5061348;28;19920;-72
2023/01/10 09:13:00;;;;;;;;;;;18.80;42.90;;;;;;5055280;28;20358;-70
2023/01/10 09:15:27;;;;;;;;;;;18.80;42.90;;;;;;5066256;28;19920;-72
2023/01/10 09:17:54;;;;;;;;;;;18.90;42.90;;;;;;5075298;28;20316;-69
2023/01/10 09:20:21;;;;;;;;;;;18.90;42.90;;;;;;5066943;28;19927;-70
2023/01/10 09:22:49;;;;;;;;;;;18.90;42.90;;;;;;5073951;28;19924;-72
2023/01/10 09:25:16;;;;;;;;;;;18.90;42.90;;;;;;5093677;28;19929;-71
2023/01/10 09:27:43;;;;;;;;;;;18.90;42.90;;;;;;5091482;28;19924;-71
2023/01/10 09:30:10;;;;;;;;;;;18.90;43.00;;;;;;5084713;28;19921;-72
2023/01/10 09:32:37;;;;;;;;;;;18.90;42.90;;;;;;5073509;28;19998;-71
2023/01/10 09:35:04;;;;;;;;;;;18.90;42.90;;;;;;5056952;28;19920;-69
2023/01/10 09:37:32;;;;;;;;;;;19.00;43.10;;;;;;5064150;28;19920;-70
2023/01/10 09:40:00;;;;;;;;;;;19.00;43.10;;;;;;5076494;28;19927;-70
2023/01/10 09:42:30;;;;;;;;;;;19.00;43.10;;;;;;5070426;28;19920;-70
2023/01/10 09:44:59;;;;;;;;;;;19.00;43.10;;;;;;5078946;28;20276;-69
2023/01/10 09:47:27;;;;;;;;;;;19.00;43.10;;;;;;5083683;28;19920;-69
2023/01/10 09:49:56;;;;;;;;;;;19.00;43.10;;;;;;5057101;28;19921;-69
2023/01/10 09:52:24;;;;;;;;;;;19.00;43.10;;;;;;5082224;28;19924;-70
2023/01/10 09:54:51;;;;;;;;;;;19.00;43.10;;;;;;5061534;28;20024;-68
2023/01/10 09:57:20;;;;;;;;;;;19.00;43.10;;;;;;5057015;28;19921;-67
2023/01/10 09:59:49;;;;;;;;;;;19.10;43.20;;;;;;5079106;28;19920;-67
2023/01/10 10:02:19;;;;;;;;;;;19.10;43.20;;;;;;5096806;28;20344;-68
2023/01/10 10:04:46;;;;;;;;;;;19.10;43.20;;;;;;5078715;28;19920;-68
2023/01/10 10:07:13;;;;;;;;;;;19.10;43.20;;;;;;5078347;28;20357;-69
2023/01/10 10:09:40;;;;;;;;;;;19.10;43.20;;;;;;5076661;28;19920;-69
2023/01/10 10:12:10;;;;;;;;;;;19.10;43.20;;;;;;5085854;28;19974;-68
2023/01/10 10:14:47;;;;;;;;;;;19.10;43.20;;;;;;5055186;28;19932;-68
2023/01/10 10:17:20;;;;;;;;;;;19.10;43.20;;;;;;5081846;28;19920;-65
2023/01/10 10:19:52;;;;;;;;;;;19.10;43.20;;;;;;5050589;28;19927;-66
2023/01/10 10:22:20;;;;;;;;;;;19.10;43.20;;;;;;5063979;28;19921;-65
2023/01/10 10:24:49;;;;;;;;;;;19.20;43.30;;;;;;5056485;28;19920;-67
2023/01/10 10:27:18;;;;;;;;;;;19.10;43.20;;;;;;5057905;28;19928;-67
2023/01/10 10:30:03;;;;;;;;;;;19.10;43.20;;;;;;5078219;28;19923;-69
2023/01/10 10:32:41;;;;;;;;;;;19.10;43.20;;;;;;5078828;28;19920;-67
2023/01/10 10:35:08;;;;;;;;;;;19.20;43.30;;;;;;5068517;28;19924;-68
2023/01/10 10:37:36;;;;;;;;;;;19.20;43.30;;;;;;5061773;28;19920;-69
2023/01/10 10:40:03;;;;;;;;;;;19.10;43.20;;;;;;5055252;28;19928;-69
2023/01/10 10:42:30;;;;;;;;;;;19.20;43.30;;;;;;5063565;28;19920;-68
2023/01/10 10:44:58;;;;;;;;;;;19.20;43.30;;;;;;5055469;28;19993;-69
2023/01/10 10:47:27;;;;;;;;;;;19.20;43.30;;;;;;5057318;28;19980;-68
2023/01/10 10:49:58;;;;;;;;;;;19.20;43.30;;;;;;5055430;28;19924;-68
2023/01/10 10:52:26;;;;;;;;;;;19.20;43.30;;;;;;5057841;28;19924;-72
2023/01/10 10:54:53;;;;;;;;;;;19.20;43.30;;;;;;5060403;28;20366;-69
2023/01/10 10:57:20;;;;;;;;;;;19.20;43.30;;;;;;5058551;28;19921;-70
2023/01/10 10:59:47;;;;;;;;;;;19.20;43.30;;;;;;5072646;28;19920;-69
2023/01/10 11:02:19;;;;;;;;;;;19.20;43.30;;;;;;5062809;28;19924;-70
2023/01/10 11:04:48;;;;;;;;;;;19.20;43.30;;;;;;5049618;28;19920;-68
2023/01/10 11:07:17;;;;;;;;;;;19.20;43.30;;;;;;5058090;28;20437;-70
2023/01/10 11:09:43;;;;;;;;;;;19.20;43.30;;;;;;5075837;28;19974;-71
2023/01/10 11:12:10;;;;;;;;;;;19.20;43.30;;;;;;5056750;28;19952;-70
2023/01/10 11:14:41;;;;;;;;;;;19.20;43.30;;;;;;5057352;28;19920;-69
2023/01/10 11:17:17;;;;;;;;;;;19.20;43.30;;;;;;5071471;28;19928;-70
2023/01/10 11:19:48;;;;;;;;;;;19.20;43.40;;;;;;5054444;28;19970;-70
2023/01/10 11:22:16;;;;;;;;;;;19.20;43.30;;;;;;5070617;28;19920;-68
2023/01/10 11:24:44;;;;;;;;;;;19.20;43.40;;;;;;5063003;28;19928;-69
2023/01/10 11:27:14;;;;;;;;;;;19.20;43.40;;;;;;5055593;28;19986;-68
2023/01/10 11:29:43;;;;;;;;;;;19.20;43.40;;;;;;5055402;28;19920;-67
2023/01/10 11:32:13;;;;;;;;;;;19.20;43.40;;;;;;5074395;28;19920;-67
2023/01/10 11:34:40;;;;;;;;;;;19.30;43.50;;;;;;5074444;28;19920;-67
2023/01/10 11:37:18;;;;;;;;;;;19.30;43.50;;;;;;5057341;28;19974;-67
2023/01/10 11:39:46;;;;;;;;;;;19.30;43.50;;;;;;5053729;28;19958;-65
2023/01/10 11:42:24;;;;;;;;;;;19.30;43.50;;;;;;5078696;28;19931;-70
2023/01/10 11:44:50;;;;;;;;;;;19.30;43.50;;;;;;5065786;28;19987;-70
2023/01/10 11:47:19;;;;;;;;;;;19.30;43.50;;;;;;5074639;28;19920;-68
2023/01/10 11:49:46;;;;;;;;;;;19.30;43.50;;;;;;5076311;28;19927;-67
2023/01/10 11:52:14;;;;;;;;;;;19.30;43.60;;;;;;5073167;28;19920;-67
2023/01/10 11:54:41;;;;;;;;;;;19.30;43.60;;;;;;5076387;28;19924;-68
2023/01/10 11:57:10;;;;;;;;;;;19.30;43.60;;;;;;5067576;28;19920;-68
2023/01/10 11:59:37;;;;;;;;;;;19.30;43.60;;;;;;5062795;28;20309;-69
2023/01/10 12:02:05;;;;;;;;;;;19.40;43.80;;;;;;5073426;28;19920;-69
2023/01/10 12:04:32;;;;;;;;;;;19.40;43.80;;;;;;5074474;28;19928;-69
2023/01/10 12:07:00;;;;;;;;;;;19.40;43.80;;;;;;5083638;28;20011;-71
2023/01/10 12:09:38;;;;;;;;;;;19.40;43.80;;;;;;5075216;28;19921;-70
2023/01/10 12:12:05;;;;;;;;;;;19.40;43.90;;;;;;5053822;28;19936;-69
2023/01/10 12:14:34;;;;;;;;;;;19.40;43.80;;;;;;5056379;28;19967;-68
2023/01/10 12:17:02;;;;;;;;;;;19.40;43.90;;;;;;5060135;28;19920;-68
2023/01/10 12:19:29;;;;;;;;;;;19.40;43.90;;;;;;5075834;28;19920;-67
2023/01/10 12:21:58;;;;;;;;;;;19.50;43.90;;;;;;5064727;28;20007;-67
2023/01/10 12:24:26;;;;;;;;;;;19.40;43.90;;;;;;5065002;28;19928;-67
2023/01/10 12:26:53;;;;;;;;;;;19.50;43.90;;;;;;5086348;28;19927;-67
2023/01/10 12:29:21;;;;;;;;;;;19.50;43.90;;;;;;5052876;28;19935;-66
2023/01/10 12:31:49;;;;;;;;;;;19.50;43.90;;;;;;5057738;28;19977;-68
2023/01/10 12:34:18;;;;;;;;;;;19.50;43.90;;;;;;5093891;28;19920;-68
2023/01/10 12:36:57;;;;;;;;;;;19.50;43.90;;;;;;5071240;28;19950;-68
2023/01/10 12:39:24;;;;;;;;;;;19.50;43.90;;;;;;5056556;28;19924;-69
2023/01/10 12:44:37;;;;;;;;;;;19.50;43.90;;;;;;5082616;28;19927;-69
2023/01/10 12:47:10;;;;;;;;;;;19.50;43.90;;;;;;5059443;28;20366;-69
2023/01/10 12:49:38;;;;;;;;;;;19.50;43.90;;;;;;5082356;28;19977;-68
2023/01/10 12:52:06;;;;;;;;;;;19.50;43.90;;;;;;5058741;28;19924;-68
2023/01/10 12:54:32;;;;;;;;;;;19.50;43.90;;;;;;5093731;28;19973;-68
2023/01/10 12:57:00;;;;;;;;;;;19.50;43.90;;;;;;5086414;28;19920;-68
2023/01/10 12:59:27;;;;;;;;;;;19.50;43.90;;;;;;5055422;28;19931;-68
2023/01/10 13:01:54;;;;;;;;;;;19.50;43.90;;;;;;5074042;28;19920;-71
2023/01/10 13:04:23;;;;;;;;;;;19.50;43.90;;;;;;5065021;28;19970;-70
2023/01/10 13:06:49;;;;;;;;;;;19.50;43.90;;;;;;5064453;28;19959;-68
2023/01/10 13:09:17;;;;;;;;;;;19.50;43.90;;;;;;5057358;28;19920;-67
2023/01/10 13:11:45;;;;;;;;;;;19.50;43.90;;;;;;5066693;28;20279;-67
2023/01/10 13:14:12;;;;;;;;;;;19.50;43.90;;;;;;5079772;28;19920;-67
2023/01/10 13:16:42;;;;;;;;;;;19.50;43.90;;;;;;5077668;28;19920;-67
2023/01/10 13:19:23;;;;;;;;;;;19.50;43.90;;;;;;5079638;28;19924;-65
2023/01/10 13:21:52;;;;;;;;;;;19.60;44.00;;;;;;5073893;28;19920;-67
2023/01/10 13:24:19;;;;;;;;;;;19.60;44.00;;;;;;5057263;28;19970;-67
2023/01/10 13:26:46;;;;;;;;;;;19.60;44.60;;;;;;5085174;28;19931;-67
2023/01/10 13:29:15;;;;;;;;;;;19.60;44.00;;;;;;5082033;28;19920;-67
2023/01/10 13:31:41;;;;;;;;;;;19.60;44.10;;;;;;5065585;28;19942;-66
2023/01/10 13:34:10;;;;;;;;;;;19.60;44.10;;;;;;5077063;28;19974;-68
2023/01/10 13:36:38;;;;;;;;;;;19.60;44.10;;;;;;5056798;28;19943;-69
2023/01/10 13:39:07;;;;;;;;;;;19.60;44.10;;;;;;5076697;28;19920;-69
2023/01/10 13:44:52;;;;;;;;;;;19.60;44.10;;;;;;5056995;28;19908;-68
2023/01/10 13:47:35;;;;;;;;;;;19.60;44.10;;;;;;5062731;28;19924;-67
2023/01/10 13:50:02;;;;;;;;;;;19.60;44.10;;;;;;5061046;28;19920;-68
2023/01/10 13:52:31;;;;;;;;;;;19.60;44.10;;;;;;5059514;28;19920;-67
2023/01/10 13:54:58;;;;;;;;;;;19.60;44.10;;;;;;5082808;28;19932;-63
2023/01/10 13:57:43;;;;;;;;;;;19.60;44.20;;;;;;5056694;28;19924;-72
2023/01/10 14:03:04;;;;;;;;;;;19.60;44.10;;;;;;5071143;28;20011;-62
2023/01/10 14:05:30;;;;;;;;;;;19.60;44.10;;;;;;5058640;28;20014;-62
2023/01/10 14:07:58;;;;;;;;;;;19.60;44.00;;;;;;5055394;28;19940;-62
2023/01/10 14:10:26;;;;;;;;;;;19.60;43.90;;;;;;5064021;28;20250;-62
2023/01/10 14:12:54;;;;;;;;;;;19.60;43.90;;;;;;5050704;28;19931;-61
2023/01/10 14:15:22;;;;;;;;;;;19.60;43.80;;;;;;5059331;28;19942;-62
2023/01/10 14:17:53;;;;;;;;;;;19.60;43.80;;;;;;5057892;28;20019;-61
2023/01/10 14:20:21;;;;;;;;;;;19.50;43.60;;;;;;5056006;28;19927;-63
2023/01/10 14:23:12;;;;;;;;;;;19.50;43.50;;;;;;5056349;28;19932;-64
2023/01/10 14:25:40;;;;;;;;;;;19.60;43.50;;;;;;5056983;28;19970;-64
2023/01/10 14:28:16;;;;;;;;;;;19.50;43.40;;;;;;5079046;28;19946;-63
2023/01/10 14:30:42;;;;;;;;;;;19.50;43.40;;;;;;5065797;28;19924;-64
2023/01/10 14:33:13;;;;;;;;;;;19.50;43.30;;;;;;5067112;28;19920;-62
2023/01/10 14:35:44;;;;;;;;;;;19.50;43.20;;;;;;5063634;28;19921;-63
2023/01/10 14:38:13;;;;;;;;;;;19.50;43.20;;;;;;5062653;28;19920;-63
2023/01/10 14:40:42;;;;;;;;;;;19.50;43.20;;;;;;5077676;28;19924;-63